createdAt,value
2023-10-10T00:02:20.048Z,85.13
2023-10-10T00:07:28.873Z,85.06
2023-10-10T00:12:36.641Z,85.07
2023-10-10T00:17:44.219Z,85.23
2023-10-10T00:22:59.786Z,85.14
2023-10-10T00:28:17.833Z,85.10
2023-10-10T00:33:24.425Z,85.11
2023-10-10T00:38:31.166Z,85.16
2023-10-10T00:43:38.310Z,85.01
2023-10-10T00:48:46.014Z,84.95
2023-10-10T00:54:12.844Z,85.05
2023-10-10T00:59:18.516Z,85.11
2023-10-10T01:04:36.976Z,85.29
2023-10-10T01:09:57.337Z,85.18
2023-10-10T01:15:09.662Z,85.12
2023-10-10T01:20:27.214Z,85.20
2023-10-10T01:25:46.690Z,85.30
2023-10-10T01:31:05.783Z,85.18
2023-10-10T01:36:20.537Z,85.26
2023-10-10T01:41:33.207Z,85.26
2023-10-10T01:46:39.246Z,85.29
2023-10-10T01:51:46.677Z,85.27
2023-10-10T01:56:54.909Z,85.42
2023-10-10T02:02:00.944Z,85.44
2023-10-10T02:07:17.229Z,85.35
2023-10-10T02:12:23.770Z,85.33
2023-10-10T02:17:31.417Z,85.32
2023-10-10T02:22:48.951Z,85.43
2023-10-10T02:27:57.668Z,85.43
2023-10-10T02:33:04.300Z,85.57
2023-10-10T02:38:13.183Z,85.60
2023-10-10T02:43:34.382Z,85.57
2023-10-10T02:48:43.631Z,85.49
2023-10-10T02:53:49.364Z,85.54
2023-10-10T02:58:55.804Z,85.55
2023-10-10T03:04:04.570Z,85.33
2023-10-10T03:09:15.880Z,85.38
2023-10-10T03:14:28.375Z,85.41
2023-10-10T03:19:40.106Z,85.48
2023-10-10T03:25:09.446Z,85.61
2023-10-10T03:30:23.363Z,85.47
2023-10-10T03:35:45.864Z,85.71
2023-10-10T03:41:05.452Z,85.65
2023-10-10T03:46:43.290Z,85.67
2023-10-10T03:52:21.198Z,85.66
2023-10-10T03:57:44.274Z,85.59
2023-10-10T04:03:07.510Z,85.54
2023-10-10T04:08:31.173Z,85.56
2023-10-10T04:13:54.424Z,85.78
2023-10-10T04:19:17.768Z,85.76
2023-10-10T04:24:41.333Z,85.65
2023-10-10T04:30:04.771Z,85.54
2023-10-10T04:35:28.329Z,85.60
2023-10-10T04:41:06.881Z,85.62
2023-10-10T04:46:36.758Z,85.63
2023-10-10T04:52:00.006Z,85.60
2023-10-10T04:57:23.231Z,85.70
2023-10-10T05:02:46.236Z,85.81
2023-10-10T05:08:11.193Z,85.90
2023-10-10T05:13:34.845Z,85.72
2023-10-10T05:18:58.307Z,85.96
2023-10-10T05:24:04.127Z,86.03
2023-10-10T05:29:12.114Z,85.88
2023-10-10T05:34:18.170Z,85.67
2023-10-10T05:39:24.104Z,85.75
2023-10-10T05:44:30.839Z,85.51
2023-10-10T05:49:38.069Z,85.84
2023-10-10T05:54:43.855Z,85.65
2023-10-10T05:59:49.669Z,85.60
2023-10-10T06:04:55.996Z,85.72
2023-10-10T06:10:07.167Z,85.85
2023-10-10T06:15:13.146Z,85.81
2023-10-10T06:20:27.377Z,85.50
2023-10-10T06:25:34.064Z,85.78
2023-10-10T06:30:40.556Z,85.61
2023-10-10T06:35:53.986Z,85.33
2023-10-10T06:41:00.702Z,85.10
2023-10-10T06:46:07.460Z,85.27
2023-10-10T06:51:13.367Z,85.22
2023-10-10T06:56:19.221Z,85.23
2023-10-10T07:01:25.797Z,84.97
2023-10-10T07:06:32.075Z,84.99
2023-10-10T07:11:40.441Z,84.94
2023-10-10T07:16:46.244Z,84.73
2023-10-10T07:21:53.160Z,84.65
2023-10-10T07:27:07.280Z,84.83
2023-10-10T07:32:18.319Z,84.89
2023-10-10T07:37:24.990Z,84.64
2023-10-10T07:42:32.468Z,84.42
2023-10-10T07:47:58.785Z,84.46
2023-10-10T07:53:07.349Z,84.37
2023-10-10T07:58:15.299Z,84.37
2023-10-10T08:03:21.641Z,84.50
2023-10-10T08:08:28.633Z,84.16
2023-10-10T08:13:34.320Z,84.03
2023-10-10T08:18:53.910Z,83.97
2023-10-10T08:24:00.520Z,83.76
2023-10-10T08:29:08.356Z,83.49
2023-10-10T08:34:16.255Z,83.65
2023-10-10T08:39:27.398Z,83.88
2023-10-10T08:44:37.354Z,83.68
2023-10-10T08:49:43.439Z,83.71
2023-10-10T08:54:49.161Z,83.82
2023-10-10T08:59:55.992Z,83.62
2023-10-10T09:05:02.013Z,83.52
2023-10-10T09:10:07.817Z,83.70
2023-10-10T09:15:18.430Z,83.61
2023-10-10T09:20:30.453Z,83.55
2023-10-10T09:25:44.129Z,83.63
2023-10-10T09:31:00.487Z,83.83
2023-10-10T09:36:10.639Z,83.42
2023-10-10T09:41:29.734Z,82.86
2023-10-10T09:47:00.985Z,82.65
2023-10-10T09:52:26.491Z,82.52
2023-10-10T09:57:33.362Z,82.45
2023-10-10T10:02:45.308Z,82.82
2023-10-10T10:08:02.286Z,82.77
2023-10-10T10:13:25.516Z,82.75
2023-10-10T10:18:45.829Z,82.66
2023-10-10T10:23:57.895Z,82.73
2023-10-10T10:29:17.397Z,83.01
2023-10-10T10:34:32.537Z,83.08
2023-10-10T10:39:39.135Z,82.86
2023-10-10T10:44:48.501Z,83.02
2023-10-10T10:49:57.469Z,82.55
2023-10-10T10:55:23.208Z,82.44
2023-10-10T11:00:58.433Z,82.73
2023-10-10T11:06:07.889Z,82.94
2023-10-10T11:11:27.256Z,82.68
2023-10-10T11:16:39.765Z,82.56
2023-10-10T11:21:50.072Z,83.01
2023-10-10T11:27:16.405Z,82.99
2023-10-10T11:32:26.644Z,83.29
2023-10-10T11:37:43.876Z,83.21
2023-10-10T11:42:51.776Z,83.19
2023-10-10T11:48:02.502Z,83.27
2023-10-10T11:53:09.353Z,83.66
2023-10-10T11:58:18.891Z,83.80
2023-10-10T12:03:43.684Z,83.66
2023-10-10T12:08:51.843Z,83.81
2023-10-10T12:13:57.968Z,83.52
2023-10-10T12:19:07.200Z,83.49
2023-10-10T12:24:13.655Z,83.31
2023-10-10T12:29:19.690Z,83.43
2023-10-10T12:34:26.723Z,83.41
2023-10-10T12:39:33.029Z,83.61
2023-10-10T12:44:38.890Z,83.22
2023-10-10T12:49:46.310Z,83.26
2023-10-10T12:54:59.970Z,82.80
2023-10-10T13:00:23.715Z,82.90
2023-10-10T13:05:29.746Z,83.27
2023-10-10T13:10:38.970Z,83.32
2023-10-10T13:15:53.639Z,83.20
2023-10-10T13:21:01.682Z,83.04
2023-10-10T13:26:07.547Z,83.06
2023-10-10T13:31:13.521Z,83.21
2023-10-10T13:36:19.376Z,83.30
2023-10-10T13:41:30.971Z,83.25
2023-10-10T13:46:37.585Z,82.73
2023-10-10T13:51:43.859Z,82.95
2023-10-10T13:56:51.815Z,83.01
2023-10-10T14:02:04.496Z,82.91
2023-10-10T14:07:12.620Z,83.10
2023-10-10T14:12:22.244Z,83.04
2023-10-10T14:17:28.170Z,82.94
2023-10-10T14:22:49.490Z,82.88
2023-10-10T14:27:59.704Z,83.12
2023-10-10T14:33:05.808Z,83.28
2023-10-10T14:38:14.384Z,83.38
2023-10-10T14:43:20.917Z,83.25
2023-10-10T14:48:27.033Z,83.26
2023-10-10T14:53:36.144Z,83.23
2023-10-10T14:58:42.459Z,83.20
2023-10-10T15:03:51.765Z,83.53
2023-10-10T15:08:57.978Z,83.74
2023-10-10T15:14:07.840Z,84.03
2023-10-10T15:19:13.740Z,83.48
2023-10-10T15:24:20.632Z,83.84
2023-10-10T15:29:29.742Z,83.91
2023-10-10T15:34:35.519Z,84.33
2023-10-10T15:39:40.560Z,84.41
2023-10-10T15:44:48.481Z,84.64
2023-10-10T15:50:01.544Z,84.94
2023-10-10T15:55:12.215Z,84.74
2023-10-10T16:00:22.318Z,84.87
2023-10-10T16:05:28.408Z,85.13
2023-10-10T16:10:37.011Z,85.36
2023-10-10T16:15:44.249Z,85.42
2023-10-10T16:20:49.430Z,85.62
2023-10-10T16:25:55.276Z,85.54
2023-10-10T16:30:59.328Z,85.58
2023-10-10T16:36:04.267Z,85.73
2023-10-10T16:41:09.992Z,85.89
2023-10-10T16:46:14.173Z,85.92
2023-10-10T16:51:21.902Z,86.10
2023-10-10T16:56:28.642Z,85.94
2023-10-10T17:01:35.978Z,85.74
2023-10-10T17:06:41.961Z,85.77
2023-10-10T17:11:52.421Z,85.90
2023-10-10T17:16:58.921Z,85.70
2023-10-10T17:22:04.675Z,85.82
2023-10-10T17:27:10.711Z,85.71
2023-10-10T17:32:17.316Z,85.76
2023-10-10T17:37:24.133Z,85.78
2023-10-10T17:42:30.083Z,85.80
2023-10-10T17:47:34.203Z,85.78
2023-10-10T17:52:39.898Z,85.74
2023-10-10T17:57:45.620Z,85.75
2023-10-10T18:02:51.480Z,85.68
2023-10-10T18:07:59.314Z,85.66
2023-10-10T18:13:06.097Z,85.73
2023-10-10T18:18:12.093Z,85.57
2023-10-10T18:23:17.776Z,85.33
2023-10-10T18:28:23.670Z,85.11
2023-10-10T18:33:29.426Z,85.13
2023-10-10T18:38:35.069Z,85.09
2023-10-10T18:43:43.490Z,85.17
2023-10-10T18:48:49.637Z,85.07
2023-10-10T18:53:57.140Z,84.99
2023-10-10T18:59:02.891Z,85.02
2023-10-10T19:04:09.500Z,84.75
2023-10-10T19:09:19.703Z,84.73
2023-10-10T19:14:28.221Z,84.68
2023-10-10T19:19:34.086Z,84.47
2023-10-10T19:24:41.029Z,84.19
2023-10-10T19:29:46.794Z,84.31
2023-10-10T19:34:51.783Z,83.99
2023-10-10T19:39:57.417Z,84.02
2023-10-10T19:45:24.478Z,83.41
2023-10-10T19:50:32.075Z,83.33
2023-10-10T19:55:38.816Z,83.65
2023-10-10T20:00:47.946Z,83.89
2023-10-10T20:05:54.436Z,84.02
2023-10-10T20:11:01.104Z,83.91
2023-10-10T20:16:16.178Z,84.11
2023-10-10T20:21:22.094Z,83.78
2023-10-10T20:26:28.939Z,83.56
2023-10-10T20:31:34.848Z,83.35
2023-10-10T20:36:40.550Z,83.44
2023-10-10T20:41:49.879Z,83.22
2023-10-10T20:46:56.329Z,83.43
2023-10-10T20:52:02.742Z,83.44
2023-10-10T20:57:08.563Z,83.03
2023-10-10T21:02:14.352Z,83.34
2023-10-10T21:07:21.300Z,83.26
2023-10-10T21:12:27.236Z,82.71
2023-10-10T21:17:34.110Z,82.68
2023-10-10T21:22:40.121Z,82.56
2023-10-10T21:27:50.840Z,82.54
2023-10-10T21:32:57.752Z,82.68
2023-10-10T21:38:03.987Z,82.94
2023-10-10T21:43:09.630Z,83.33
2023-10-10T21:48:15.488Z,83.34
2023-10-10T21:53:21.359Z,83.43
2023-10-10T21:58:27.377Z,83.25
2023-10-10T22:03:34.267Z,82.86
2023-10-10T22:08:40.463Z,82.43
2023-10-10T22:13:49.843Z,82.35
2023-10-10T22:18:59.075Z,82.52
2023-10-10T22:24:05.972Z,82.32
2023-10-10T22:29:12.531Z,82.31
2023-10-10T22:34:19.173Z,82.43
2023-10-10T22:39:26.336Z,82.59
2023-10-10T22:44:32.071Z,82.68
2023-10-10T22:49:37.804Z,82.81
2023-10-10T22:54:43.505Z,82.71
2023-10-10T22:59:49.287Z,82.48
2023-10-10T23:04:55.095Z,82.64
2023-10-10T23:10:01.524Z,82.59
2023-10-10T23:15:12.900Z,82.45
2023-10-10T23:20:21.306Z,82.46
2023-10-10T23:25:27.660Z,82.46
2023-10-10T23:30:34.399Z,83.24
2023-10-10T23:35:40.624Z,83.63
2023-10-10T23:40:46.794Z,83.66
2023-10-10T23:45:58.183Z,83.87
2023-10-10T23:51:08.432Z,83.95
2023-10-10T23:56:14.463Z,84.12
